CheckWX is a tool to help pilots better visualize weather data.  It is not intended as a substitute for an official pre-flight weather briefing.

18:34:01 UTC

KMSY METAR
Louis Armstrong New Orleans International Airport
New Orleans, Louisiana, USA
Current

41 mins ago

KMSY 221753Z 16011KT 8SM SCT017 BKN023 BKN090 BKN250 26/23 A3007 RMK AO2 SLP185 BKN023 V SCT T02610228 10267 20217 58000
Observed
Feb-22 @ 17:53 UTC
Wind
  • 160° at 11 KTS
Visibility
8 SM
Flight Rules
MVFR
Cloud Levels
  • Scattered at 1,700' AGL
  • Broken at 2,300' AGL
  • Broken at 9,000' AGL
  • Broken at 25,000' AGL
Temperature
26°C / 79°F
Dewpoint
23°C / 73°F
Humidity
84%
Altimeter
30.07" Hg
Pressure
1018.5 hPa
Previous

1 hour ago

KMSY 221727Z 17007KT 8SM FEW017 BKN027 BKN090 BKN250 26/23 A3008 RMK AO2 BKN027 V SCT T02610228
Observed
Feb-22 @ 17:27 UTC
Wind
  • 170° at 7 KTS
Visibility
8 SM
Flight Rules
MVFR
Cloud Levels
  • Few at 1,700' AGL
  • Broken at 2,700' AGL
  • Broken at 9,000' AGL
  • Broken at 25,000' AGL
Temperature
26°C / 79°F
Dewpoint
23°C / 73°F
Humidity
84%
Altimeter
30.08" Hg
Pressure
1018.62 hPa
Previous

2 hours ago

KMSY 221653Z 18008KT 7SM SCT015 BKN090 BKN250 26/23 A3008 RMK AO2 SLP189 SCT V BKN T02610228
Observed
Feb-22 @ 16:53 UTC
Wind
  • 180° at 8 KTS
Visibility
7 SM
Flight Rules
VFR
Cloud Levels
  • Scattered at 1,500' AGL
  • Broken at 9,000' AGL
  • Broken at 25,000' AGL
Temperature
26°C / 79°F
Dewpoint
23°C / 73°F
Humidity
84%
Altimeter
30.08" Hg
Pressure
1018.9 hPa